sensor_id;sensor_type;location;lat;lon;timestamp;pressure;altitude;pressure_sealevel;temperature;humidity
72612;BME280;60655;52.182;4.474;2022-09-13T00:01:40;101095.94;;;19.92;77.77
72612;BME280;60655;52.182;4.474;2022-09-13T00:03:40;101099.72;;;19.85;78.49
72612;BME280;60655;52.182;4.474;2022-09-13T00:05:41;101082.72;;;19.80;77.84
72612;BME280;60655;52.182;4.474;2022-09-13T00:07:42;101088.66;;;19.82;78.27
72612;BME280;60655;52.182;4.474;2022-09-13T00:09:43;101090.53;;;19.76;78.69
72612;BME280;60655;52.182;4.474;2022-09-13T00:11:44;101092.16;;;19.77;78.63
72612;BME280;60655;52.182;4.474;2022-09-13T00:13:45;101096.75;;;19.82;78.30
72612;BME280;60655;52.182;4.474;2022-09-13T00:15:48;101084.88;;;19.83;77.96
72612;BME280;60655;52.182;4.474;2022-09-13T00:17:50;101085.69;;;19.78;78.51
72612;BME280;60655;52.182;4.474;2022-09-13T00:19:50;101094.84;;;19.82;78.73
72612;BME280;60655;52.182;4.474;2022-09-13T00:21:52;101082.19;;;19.73;79.40
72612;BME280;60655;52.182;4.474;2022-09-13T00:23:54;101073.28;;;19.72;79.49
72612;BME280;60655;52.182;4.474;2022-09-13T00:26:03;101080.81;;;19.70;79.80
72612;BME280;60655;52.182;4.474;2022-09-13T00:28:04;101082.19;;;19.63;80.19
72612;BME280;60655;52.182;4.474;2022-09-13T00:30:06;101085.41;;;19.65;80.18
72612;BME280;60655;52.182;4.474;2022-09-13T00:32:07;101077.34;;;19.60;80.44
72612;BME280;60655;52.182;4.474;2022-09-13T00:34:08;101071.69;;;19.56;80.54
72612;BME280;60655;52.182;4.474;2022-09-13T00:36:10;101066.03;;;19.58;80.22
72612;BME280;60655;52.182;4.474;2022-09-13T00:38:11;101060.91;;;19.56;80.06
72612;BME280;60655;52.182;4.474;2022-09-13T00:40:12;101066.03;;;19.63;79.81
72612;BME280;60655;52.182;4.474;2022-09-13T00:42:14;101074.09;;;19.68;80.25
72612;BME280;60655;52.182;4.474;2022-09-13T00:44:48;101084.91;;;19.63;81.04
72612;BME280;60655;52.182;4.474;2022-09-13T00:46:51;101083.28;;;19.51;81.55
72612;BME280;60655;52.182;4.474;2022-09-13T00:48:56;101088.13;;;19.60;81.04
72612;BME280;60655;52.182;4.474;2022-09-13T00:51:00;101076.25;;;19.50;81.13
72612;BME280;60655;52.182;4.474;2022-09-13T00:53:25;101078.16;;;19.55;81.27
72612;BME280;60655;52.182;4.474;2022-09-13T00:55:34;101080.31;;;19.63;80.74
72612;BME280;60655;52.182;4.474;2022-09-13T00:57:38;101070.34;;;19.53;81.20
72612;BME280;60655;52.182;4.474;2022-09-13T01:00:07;101069.22;;;19.49;81.51
72612;BME280;60655;52.182;4.474;2022-09-13T01:02:12;101067.09;;;19.51;81.63
72612;BME280;60655;52.182;4.474;2022-09-13T01:04:14;101072.50;;;19.51;81.68
72612;BME280;60655;52.182;4.474;2022-09-13T01:06:22;101072.22;;;19.58;81.34
72612;BME280;60655;52.182;4.474;2022-09-13T01:08:26;101088.09;;;19.65;81.12
72612;BME280;60655;52.182;4.474;2022-09-13T01:10:32;101087.56;;;19.73;80.27
72612;BME280;60655;52.182;4.474;2022-09-13T01:12:54;101081.41;;;19.62;81.78
72612;BME280;60655;52.182;4.474;2022-09-13T01:14:58;101068.69;;;19.47;82.03
72612;BME280;60655;52.182;4.474;2022-09-13T01:17:00;101076.81;;;19.58;81.98
72612;BME280;60655;52.182;4.474;2022-09-13T01:19:01;101074.66;;;19.60;81.39
72612;BME280;60655;52.182;4.474;2022-09-13T01:28:20;101071.94;;;19.70;81.00
72612;BME280;60655;52.182;4.474;2022-09-13T01:30:33;101060.63;;;19.58;81.94
72612;BME280;60655;52.182;4.474;2022-09-13T01:32:59;101057.13;;;19.57;82.01
72612;BME280;60655;52.182;4.474;2022-09-13T01:35:23;101059.25;;;19.65;81.58
72612;BME280;60655;52.182;4.474;2022-09-13T01:37:42;101053.88;;;19.65;81.43
72612;BME280;60655;52.182;4.474;2022-09-13T01:47:28;101054.72;;;19.55;81.71
72612;BME280;60655;52.182;4.474;2022-09-13T01:49:42;101050.34;;;19.44;82.12
72612;BME280;60655;52.182;4.474;2022-09-13T01:52:07;101053.34;;;19.53;81.97
72612;BME280;60655;52.182;4.474;2022-09-13T01:59:17;101037.97;;;19.43;82.01
72612;BME280;60655;52.182;4.474;2022-09-13T02:01:33;101044.97;;;19.44;82.16
72612;BME280;60655;52.182;4.474;2022-09-13T02:03:40;101052.53;;;19.32;82.91
72612;BME280;60655;52.182;4.474;2022-09-13T02:05:58;101049.28;;;19.35;82.73
72612;BME280;60655;52.182;4.474;2022-09-13T02:08:05;101053.03;;;19.39;82.60
72612;BME280;60655;52.182;4.474;2022-09-13T02:10:13;101038.25;;;19.32;82.63
72612;BME280;60655;52.182;4.474;2022-09-13T02:12:22;101040.13;;;19.31;82.75
72612;BME280;60655;52.182;4.474;2022-09-13T02:14:33;101040.94;;;19.32;82.35
72612;BME280;60655;52.182;4.474;2022-09-13T02:16:37;101043.91;;;19.30;82.54
72612;BME280;60655;52.182;4.474;2022-09-13T02:18:41;101046.03;;;19.38;81.99
72612;BME280;60655;52.182;4.474;2022-09-13T02:20:46;101053.59;;;19.31;82.43
72612;BME280;60655;52.182;4.474;2022-09-13T02:22:53;101042.00;;;19.26;82.67
72612;BME280;60655;52.182;4.474;2022-09-13T02:24:59;101046.84;;;19.23;83.04
72612;BME280;60655;52.182;4.474;2022-09-13T02:27:07;101055.75;;;19.29;82.77
72612;BME280;60655;52.182;4.474;2022-09-13T02:29:11;101046.56;;;19.35;82.19
72612;BME280;60655;52.182;4.474;2022-09-13T02:31:17;101053.03;;;19.39;81.75
72612;BME280;60655;52.182;4.474;2022-09-13T02:33:50;101043.63;;;19.32;82.00
72612;BME280;60655;52.182;4.474;2022-09-13T02:36:07;101057.91;;;19.37;82.03
72612;BME280;60655;52.182;4.474;2022-09-13T02:38:25;101056.03;;;19.33;82.27
72612;BME280;60655;52.182;4.474;2022-09-13T02:40:44;101053.31;;;19.17;83.50
72612;BME280;60655;52.182;4.474;2022-09-13T02:42:51;101055.47;;;19.15;83.74
72612;BME280;60655;52.182;4.474;2022-09-13T02:44:55;101053.59;;;19.21;82.98
72612;BME280;60655;52.182;4.474;2022-09-13T02:47:13;101059.78;;;19.27;82.63
72612;BME280;60655;52.182;4.474;2022-09-13T02:49:43;101044.94;;;19.14;83.39
72612;BME280;60655;52.182;4.474;2022-09-13T02:51:55;101042.81;;;19.26;82.73
72612;BME280;60655;52.182;4.474;2022-09-13T02:54:13;101036.34;;;19.22;83.16
72612;BME280;60655;52.182;4.474;2022-09-13T02:56:43;101046.84;;;19.13;83.44
72612;BME280;60655;52.182;4.474;2022-09-13T02:58:53;101054.94;;;19.23;83.46
72612;BME280;60655;52.182;4.474;2022-09-13T03:00:57;101058.44;;;19.19;83.51
72612;BME280;60655;52.182;4.474;2022-09-13T03:03:02;101040.09;;;19.16;83.46
72612;BME280;60655;52.182;4.474;2022-09-13T03:05:04;101054.66;;;19.15;83.56
72612;BME280;60655;52.182;4.474;2022-09-13T03:07:10;101067.06;;;19.21;83.35
72612;BME280;60655;52.182;4.474;2022-09-13T03:09:11;101061.66;;;19.21;83.29
72612;BME280;60655;52.182;4.474;2022-09-13T03:11:23;101054.94;;;19.23;82.95
72612;BME280;60655;52.182;4.474;2022-09-13T03:21:07;101058.44;;;19.24;83.20
72612;BME280;60655;52.182;4.474;2022-09-13T03:25:53;101062.47;;;19.21;83.29
72612;BME280;60655;52.182;4.474;2022-09-13T03:30:22;101063.28;;;19.17;83.51
72612;BME280;60655;52.182;4.474;2022-09-13T03:34:59;101064.06;;;19.12;83.63
72612;BME280;60655;52.182;4.474;2022-09-13T03:37:13;101066.47;;;19.09;83.80
72612;BME280;60655;52.182;4.474;2022-09-13T03:39:34;101066.22;;;19.10;83.75
72612;BME280;60655;52.182;4.474;2022-09-13T03:41:41;101044.69;;;19.05;83.51
72612;BME280;60655;52.182;4.474;2022-09-13T03:43:47;101039.81;;;19.07;83.31
72612;BME280;60655;52.182;4.474;2022-09-13T03:45:58;101051.69;;;19.11;83.63
72612;BME280;60655;52.182;4.474;2022-09-13T03:48:02;101049.53;;;18.98;83.78
72612;BME280;60655;52.182;4.474;2022-09-13T03:50:06;101052.50;;;19.02;83.27
72612;BME280;60655;52.182;4.474;2022-09-13T03:52:08;101061.91;;;19.09;83.06
72612;BME280;60655;52.182;4.474;2022-09-13T03:54:14;101048.47;;;19.04;83.28
72612;BME280;60655;52.182;4.474;2022-09-13T03:56:18;101044.94;;;18.94;83.28
72612;BME280;60655;52.182;4.474;2022-09-13T03:58:21;101039.25;;;18.90;83.82
72612;BME280;60655;52.182;4.474;2022-09-13T04:00:23;101052.47;;;18.97;83.82
72612;BME280;60655;52.182;4.474;2022-09-13T04:02:25;101054.91;;;18.98;83.66
72612;BME280;60655;52.182;4.474;2022-09-13T04:04:26;101051.94;;;18.95;83.51
72612;BME280;60655;52.182;4.474;2022-09-13T04:06:27;101061.09;;;18.94;83.44
72612;BME280;60655;52.182;4.474;2022-09-13T04:08:29;101045.16;;;18.82;83.77
72612;BME280;60655;52.182;4.474;2022-09-13T04:10:30;101053.28;;;18.92;83.65
72612;BME280;60655;52.182;4.474;2022-09-13T04:12:31;101061.34;;;18.92;83.85
72612;BME280;60655;52.182;4.474;2022-09-13T04:14:32;101065.69;;;18.98;83.25
72612;BME280;60655;52.182;4.474;2022-09-13T04:16:33;101071.88;;;19.04;82.84
72612;BME280;60655;52.182;4.474;2022-09-13T04:18:34;101069.72;;;19.01;83.02
72612;BME280;60655;52.182;4.474;2022-09-13T04:20:38;101068.91;;;18.95;83.55
72612;BME280;60655;52.182;4.474;2022-09-13T04:22:39;101068.09;;;18.95;83.55
72612;BME280;60655;52.182;4.474;2022-09-13T04:24:40;101060.28;;;18.93;83.21
72612;BME280;60655;52.182;4.474;2022-09-13T04:26:40;101060.53;;;18.86;83.76
72612;BME280;60655;52.182;4.474;2022-09-13T04:28:41;101056.47;;;18.84;83.93
72612;BME280;60655;52.182;4.474;2022-09-13T04:30:44;101068.34;;;18.93;83.86
72612;BME280;60655;52.182;4.474;2022-09-13T04:32:45;101041.66;;;18.76;83.58
72612;BME280;60655;52.182;4.474;2022-09-13T04:34:46;101071.56;;;18.85;84.10
72612;BME280;60655;52.182;4.474;2022-09-13T04:36:48;101064.84;;;18.87;83.56
72612;BME280;60655;52.182;4.474;2022-09-13T04:38:49;101071.56;;;18.85;83.89
72612;BME280;60655;52.182;4.474;2022-09-13T04:40:52;101072.38;;;18.91;83.66
72612;BME280;60655;52.182;4.474;2022-09-13T04:42:53;101082.59;;;18.88;83.77
72612;BME280;60655;52.182;4.474;2022-09-13T04:44:54;101089.06;;;18.87;83.84
72612;BME280;60655;52.182;4.474;2022-09-13T04:46:55;101086.38;;;18.93;83.56
72612;BME280;60655;52.182;4.474;2022-09-13T04:48:56;101085.81;;;18.85;83.89
72612;BME280;60655;52.182;4.474;2022-09-13T04:51:02;101079.94;;;18.99;83.46
72612;BME280;60655;52.182;4.474;2022-09-13T04:53:04;101081.03;;;19.13;82.68
72612;BME280;60655;52.182;4.474;2022-09-13T04:55:05;101084.78;;;19.07;82.67
72612;BME280;60655;52.182;4.474;2022-09-13T04:57:06;101082.38;;;19.00;83.35
72612;BME280;60655;52.182;4.474;2022-09-13T04:59:09;101079.13;;;18.98;83.71
72612;BME280;60655;52.182;4.474;2022-09-13T05:01:10;101092.06;;;19.06;83.52
72612;BME280;60655;52.182;4.474;2022-09-13T05:03:11;101085.06;;;19.10;83.78
72612;BME280;60655;52.182;4.474;2022-09-13T05:05:13;101084.00;;;19.01;84.38
72612;BME280;60655;52.182;4.474;2022-09-13T05:07:14;101088.56;;;19.01;84.67
72612;BME280;60655;52.182;4.474;2022-09-13T05:09:15;101079.41;;;19.02;84.74
72612;BME280;60655;52.182;4.474;2022-09-13T05:11:17;101083.44;;;19.09;84.70
72612;BME280;60655;52.182;4.474;2022-09-13T05:13:18;101076.44;;;18.98;84.91
72612;BME280;60655;52.182;4.474;2022-09-13T05:15:19;101089.13;;;19.03;84.85
72612;BME280;60655;52.182;4.474;2022-09-13T05:17:20;101096.09;;;19.09;84.69
72612;BME280;60655;52.182;4.474;2022-09-13T05:19:21;101097.47;;;19.11;84.31
72612;BME280;60655;52.182;4.474;2022-09-13T05:21:22;101097.72;;;19.00;85.18
72612;BME280;60655;52.182;4.474;2022-09-13T05:23:25;101102.03;;;19.11;84.96
72612;BME280;60655;52.182;4.474;2022-09-13T05:25:26;101105.28;;;19.13;84.87
72612;BME280;60655;52.182;4.474;2022-09-13T05:27:27;101102.59;;;19.18;84.60
72612;BME280;60655;52.182;4.474;2022-09-13T05:29:28;101109.88;;;19.22;84.59
72612;BME280;60655;52.182;4.474;2022-09-13T05:31:35;101109.34;;;19.20;85.08
72612;BME280;60655;52.182;4.474;2022-09-13T05:33:37;101103.41;;;19.23;85.25
72612;BME280;60655;52.182;4.474;2022-09-13T05:35:39;101105.84;;;19.25;84.89
72612;BME280;60655;52.182;4.474;2022-09-13T05:37:40;101109.38;;;19.31;85.48
72612;BME280;60655;52.182;4.474;2022-09-13T05:39:41;101115.00;;;19.39;85.28
72612;BME280;60655;52.182;4.474;2022-09-13T05:41:43;101116.16;;;19.53;84.72
72612;BME280;60655;52.182;4.474;2022-09-13T05:43:44;101109.66;;;19.49;85.09
72612;BME280;60655;52.182;4.474;2022-09-13T05:45:45;101100.47;;;19.40;85.02
72612;BME280;60655;52.182;4.474;2022-09-13T05:47:50;101116.16;;;19.59;84.80
72612;BME280;60655;52.182;4.474;2022-09-13T05:49:51;101100.47;;;19.45;84.14
72612;BME280;60655;52.182;4.474;2022-09-13T05:51:52;101088.66;;;19.51;84.15
72612;BME280;60655;52.182;4.474;2022-09-13T05:53:53;101117.50;;;19.61;84.39
72612;BME280;60655;52.182;4.474;2022-09-13T05:55:55;101124.50;;;19.57;84.28
72612;BME280;60655;52.182;4.474;2022-09-13T05:57:56;101117.22;;;19.58;83.95
72612;BME280;60655;52.182;4.474;2022-09-13T05:59:57;101121.53;;;19.69;84.20
72612;BME280;60655;52.182;4.474;2022-09-13T06:01:58;101110.22;;;19.62;84.51
72612;BME280;60655;52.182;4.474;2022-09-13T06:03:59;101119.94;;;19.63;84.62
72612;BME280;60655;52.182;4.474;2022-09-13T06:06:01;101121.53;;;19.69;83.73
72612;BME280;60655;52.182;4.474;2022-09-13T06:08:02;101129.34;;;19.70;83.34
72612;BME280;60655;52.182;4.474;2022-09-13T06:10:03;101125.03;;;19.64;83.60
72612;BME280;60655;52.182;4.474;2022-09-13T06:12:05;101128.53;;;19.75;83.53
72612;BME280;60655;52.182;4.474;2022-09-13T06:14:08;101123.69;;;19.82;83.36
72612;BME280;60655;52.182;4.474;2022-09-13T06:16:11;101121.81;;;19.72;84.15
72612;BME280;60655;52.182;4.474;2022-09-13T06:18:13;101134.47;;;19.77;84.03
72612;BME280;60655;52.182;4.474;2022-09-13T06:20:14;101127.75;;;19.74;84.18
72612;BME280;60655;52.182;4.474;2022-09-13T06:22:15;101131.78;;;19.87;84.37
72612;BME280;60655;52.182;4.474;2022-09-13T06:24:16;101143.91;;;19.79;85.02
72612;BME280;60655;52.182;4.474;2022-09-13T06:26:19;101136.34;;;19.66;86.22
72612;BME280;60655;52.182;4.474;2022-09-13T06:28:21;101137.69;;;19.64;85.69
72612;BME280;60655;52.182;4.474;2022-09-13T06:30:22;101131.53;;;19.63;86.50
72612;BME280;60655;52.182;4.474;2022-09-13T06:32:24;101139.34;;;19.60;86.32
72612;BME280;60655;52.182;4.474;2022-09-13T06:34:25;101146.88;;;19.58;86.62
72612;BME280;60655;52.182;4.474;2022-09-13T06:36:27;101151.72;;;19.66;85.54
72612;BME280;60655;52.182;4.474;2022-09-13T06:38:28;101144.44;;;19.51;86.40
72612;BME280;60655;52.182;4.474;2022-09-13T06:40:30;101146.88;;;19.58;86.01
72612;BME280;60655;52.182;4.474;2022-09-13T06:42:35;101146.28;;;19.45;86.27
72612;BME280;60655;52.182;4.474;2022-09-13T06:44:36;101148.47;;;19.64;85.32
72612;BME280;60655;52.182;4.474;2022-09-13T06:46:37;101147.41;;;19.65;85.23
72612;BME280;60655;52.182;4.474;2022-09-13T06:48:40;101137.19;;;19.62;84.61
72612;BME280;60655;52.182;4.474;2022-09-13T06:50:42;101145.78;;;19.74;84.54
72612;BME280;60655;52.182;4.474;2022-09-13T06:52:44;101135.56;;;19.71;83.68
72612;BME280;60655;52.182;4.474;2022-09-13T06:54:45;101130.97;;;19.66;83.73
72612;BME280;60655;52.182;4.474;2022-09-13T06:56:46;101133.66;;;19.66;83.86
72612;BME280;60655;52.182;4.474;2022-09-13T06:58:49;101141.50;;;19.83;83.02
72612;BME280;60655;52.182;4.474;2022-09-13T07:00:51;101142.03;;;19.80;83.79
72612;BME280;60655;52.182;4.474;2022-09-13T07:02:52;101146.34;;;19.71;84.14
72612;BME280;60655;52.182;4.474;2022-09-13T07:04:53;101141.50;;;19.83;83.65
72612;BME280;60655;52.182;4.474;2022-09-13T07:06:54;101148.25;;;19.91;82.71
72612;BME280;60655;52.182;4.474;2022-09-13T07:08:57;101130.16;;;19.81;82.86
72612;BME280;60655;52.182;4.474;2022-09-13T07:10:59;101140.94;;;19.81;82.85
72612;BME280;60655;52.182;4.474;2022-09-13T07:13:00;101136.38;;;19.86;82.65
72612;BME280;60655;52.182;4.474;2022-09-13T07:15:01;101133.13;;;19.89;82.27
72612;BME280;60655;52.182;4.474;2022-09-13T07:17:02;101133.38;;;19.93;81.60
72612;BME280;60655;52.182;4.474;2022-09-13T07:19:32;101136.09;;;19.78;81.56
72612;BME280;60655;52.182;4.474;2022-09-13T07:21:32;101137.19;;;19.87;81.64
72612;BME280;60655;52.182;4.474;2022-09-13T07:23:35;101129.63;;;19.89;81.55
72612;BME280;60655;52.182;4.474;2022-09-13T07:25:36;101108.59;;;19.81;80.97
72612;BME280;60655;52.182;4.474;2022-09-13T07:27:37;101139.59;;;20.04;80.41
72612;BME280;60655;52.182;4.474;2022-09-13T07:29:39;101133.66;;;19.97;80.66
72612;BME280;60655;52.182;4.474;2022-09-13T07:31:42;101138.22;;;20.06;79.42
72612;BME280;60655;52.182;4.474;2022-09-13T07:33:43;101129.88;;;19.98;79.71
72612;BME280;60655;52.182;4.474;2022-09-13T07:35:45;101139.31;;;20.00;79.65
72612;BME280;60655;52.182;4.474;2022-09-13T07:37:45;101138.47;;;20.30;79.15
72612;BME280;60655;52.182;4.474;2022-09-13T07:39:46;101140.88;;;20.32;78.75
72612;BME280;60655;52.182;4.474;2022-09-13T07:41:49;101148.97;;;20.37;78.61
72612;BME280;60655;52.182;4.474;2022-09-13T07:43:51;101146.84;;;20.39;77.57
72612;BME280;60655;52.182;4.474;2022-09-13T07:45:59;101142.50;;;20.22;78.97
72612;BME280;60655;52.182;4.474;2022-09-13T07:48:00;101152.50;;;20.42;77.91
72612;BME280;60655;52.182;4.474;2022-09-13T07:50:01;101144.13;;;20.29;77.76
72612;BME280;60655;52.182;4.474;2022-09-13T07:52:02;101154.38;;;20.32;78.78
72612;BME280;60655;52.182;4.474;2022-09-13T07:54:09;101147.63;;;20.34;77.94
72612;BME280;60655;52.182;4.474;2022-09-13T07:56:18;101153.84;;;20.40;77.81
72612;BME280;60655;52.182;4.474;2022-09-13T07:58:19;101154.66;;;20.35;77.85
72612;BME280;60655;52.182;4.474;2022-09-13T08:00:20;101157.63;;;20.29;77.97
72612;BME280;60655;52.182;4.474;2022-09-13T08:02:22;101147.94;;;20.38;77.70
72612;BME280;60655;52.182;4.474;2022-09-13T08:04:24;101150.06;;;20.26;78.10
72612;BME280;60655;52.182;4.474;2022-09-13T08:06:27;101159.25;;;20.40;77.86
72612;BME280;60655;52.182;4.474;2022-09-13T08:08:29;101163.03;;;20.49;77.57
72612;BME280;60655;52.182;4.474;2022-09-13T08:10:30;101152.19;;;20.59;76.74
72612;BME280;60655;52.182;4.474;2022-09-13T08:12:31;101167.84;;;20.57;76.37
72612;BME280;60655;52.182;4.474;2022-09-13T08:14:32;101171.03;;;20.74;75.97
72612;BME280;60655;52.182;4.474;2022-09-13T08:16:33;101164.31;;;20.56;77.42
72612;BME280;60655;52.182;4.474;2022-09-13T08:18:34;101165.41;;;20.61;76.69
72612;BME280;60655;52.182;4.474;2022-09-13T08:20:36;101172.41;;;20.72;76.19
72612;BME280;60655;52.182;4.474;2022-09-13T08:22:40;101164.03;;;20.68;76.19
72612;BME280;60655;52.182;4.474;2022-09-13T08:24:41;101173.75;;;20.69;76.60
72612;BME280;60655;52.182;4.474;2022-09-13T08:26:43;101159.72;;;20.67;76.29
72612;BME280;60655;52.182;4.474;2022-09-13T08:28:44;101181.88;;;20.54;75.58
72612;BME280;60655;52.182;4.474;2022-09-13T08:30:45;101172.41;;;20.62;75.51
72612;BME280;60655;52.182;4.474;2022-09-13T08:32:49;101174.38;;;20.41;75.76
72612;BME280;60655;52.182;4.474;2022-09-13T08:34:50;101172.75;;;20.45;75.87
72612;BME280;60655;52.182;4.474;2022-09-13T08:36:51;101178.66;;;20.52;76.29
72612;BME280;60655;52.182;4.474;2022-09-13T08:39:00;101183.25;;;20.36;75.90
72612;BME280;60655;52.182;4.474;2022-09-13T08:41:15;101168.16;;;20.40;75.32
72612;BME280;60655;52.182;4.474;2022-09-13T08:43:23;101191.59;;;20.55;74.92
72612;BME280;60655;52.182;4.474;2022-09-13T08:45:29;101186.19;;;20.55;74.82
72612;BME280;60655;52.182;4.474;2022-09-13T08:47:47;101183.53;;;20.45;74.61
72612;BME280;60655;52.182;4.474;2022-09-13T08:50:03;101187.84;;;20.26;74.14
72612;BME280;60655;52.182;4.474;2022-09-13T08:54:25;101192.69;;;20.29;73.90
72612;BME280;60655;52.182;4.474;2022-09-13T08:59:02;101195.38;;;20.29;74.03
72612;BME280;60655;52.182;4.474;2022-09-13T09:03:37;101188.66;;;20.31;72.76
72612;BME280;60655;52.182;4.474;2022-09-13T09:05:49;101195.66;;;20.52;72.45
72612;BME280;60655;52.182;4.474;2022-09-13T09:08:09;101200.28;;;20.42;71.90
72612;BME280;60655;52.182;4.474;2022-09-13T09:10:43;101205.09;;;20.35;71.61
72612;BME280;60655;52.182;4.474;2022-09-13T09:12:49;101203.72;;;20.63;71.35
72612;BME280;60655;52.182;4.474;2022-09-13T09:17:22;101207.03;;;20.44;71.12
72612;BME280;60655;52.182;4.474;2022-09-13T09:19:28;101194.28;;;20.55;70.48
72612;BME280;60655;52.182;4.474;2022-09-13T09:21:34;101208.84;;;20.69;70.40
72612;BME280;60655;52.182;4.474;2022-09-13T09:23:40;101195.91;;;20.51;69.46
72612;BME280;60655;52.182;4.474;2022-09-13T09:25:46;101199.72;;;20.45;70.40
72612;BME280;60655;52.182;4.474;2022-09-13T09:27:47;101200.75;;;20.64;70.52
72612;BME280;60655;52.182;4.474;2022-09-13T09:29:53;101175.16;;;20.46;71.13
72612;BME280;60655;52.182;4.474;2022-09-13T09:37:33;101196.97;;;20.60;68.37
72612;BME280;60655;52.182;4.474;2022-09-13T09:39:14;101200.00;;;20.48;69.29
72612;BME280;60655;52.182;4.474;2022-09-13T09:41:29;101195.91;;;20.61;69.33
72612;BME280;60655;52.182;4.474;2022-09-13T09:43:41;101190.75;;;20.70;68.48
72612;BME280;60655;52.182;4.474;2022-09-13T09:45:46;101176.22;;;20.30;68.55
72612;BME280;60655;52.182;4.474;2022-09-13T09:47:49;101186.50;;;20.48;68.47
72612;BME280;60655;52.182;4.474;2022-09-13T09:50:00;101172.47;;;20.46;69.04
72612;BME280;60655;52.182;4.474;2022-09-13T09:52:14;101194.00;;;20.62;67.46
72612;BME280;60655;52.182;4.474;2022-09-13T09:54:17;101191.84;;;20.64;67.87
72612;BME280;60655;52.182;4.474;2022-09-13T09:58:40;101197.03;;;20.50;68.18
72612;BME280;60655;52.182;4.474;2022-09-13T10:00:53;101199.19;;;20.48;68.51
72612;BME280;60655;52.182;4.474;2022-09-13T10:02:56;101188.41;;;20.17;68.77
72612;BME280;60655;52.182;4.474;2022-09-13T10:05:00;101189.22;;;20.18;68.80
72612;BME280;60655;52.182;4.474;2022-09-13T10:09:21;101192.44;;;20.45;68.79
72612;BME280;60655;52.182;4.474;2022-09-13T10:11:22;101193.19;;;20.66;69.37
72612;BME280;60655;52.182;4.474;2022-09-13T10:13:27;101187.72;;;20.92;66.62
72612;BME280;60655;52.182;4.474;2022-09-13T10:15:30;101195.03;;;20.81;66.24
72612;BME280;60655;52.182;4.474;2022-09-13T10:17:34;101196.41;;;20.78;66.47
72612;BME280;60655;52.182;4.474;2022-09-13T10:19:36;101189.78;;;21.10;66.15
72612;BME280;60655;52.182;4.474;2022-09-13T10:21:37;101184.19;;;20.91;66.24
72612;BME280;60655;52.182;4.474;2022-09-13T10:23:38;101189.41;;;20.77;66.14
72612;BME280;60655;52.182;4.474;2022-09-13T10:25:41;101177.16;;;20.95;66.77
72612;BME280;60655;52.182;4.474;2022-09-13T10:27:51;101176.88;;;21.02;65.52
72612;BME280;60655;52.182;4.474;2022-09-13T10:29:55;101173.16;;;20.82;65.02
72612;BME280;60655;52.182;4.474;2022-09-13T10:32:07;101170.44;;;20.82;65.49
72612;BME280;60655;52.182;4.474;2022-09-13T10:34:27;101175.25;;;21.01;65.08
72612;BME280;60655;52.182;4.474;2022-09-13T10:36:36;101169.25;;;21.09;64.32
72612;BME280;60655;52.182;4.474;2022-09-13T10:38:39;101170.22;;;20.74;63.60
72612;BME280;60655;52.182;4.474;2022-09-13T10:40:46;101183.28;;;21.11;63.76
72612;BME280;60655;52.182;4.474;2022-09-13T10:42:59;101176.25;;;21.15;63.47
72612;BME280;60655;52.182;4.474;2022-09-13T10:45:04;101168.13;;;21.15;62.82
72612;BME280;60655;52.182;4.474;2022-09-13T10:47:28;101178.81;;;21.45;62.78
72612;BME280;60655;52.182;4.474;2022-09-13T10:49:46;101172.09;;;21.38;61.64
72612;BME280;60655;52.182;4.474;2022-09-13T10:51:47;101162.97;;;21.29;62.17
72612;BME280;60655;52.182;4.474;2022-09-13T10:53:48;101155.56;;;21.44;61.07
72612;BME280;60655;52.182;4.474;2022-09-13T10:55:53;101147.84;;;21.28;61.84
72612;BME280;60655;52.182;4.474;2022-09-13T10:58:11;101162.03;;;20.99;62.09
72612;BME280;60655;52.182;4.474;2022-09-13T11:00:21;101136.75;;;20.70;62.97
72612;BME280;60655;52.182;4.474;2022-09-13T11:04:38;101171.88;;;20.65;64.04
72612;BME280;60655;52.182;4.474;2022-09-13T11:07:15;101176.38;;;20.84;63.65
72612;BME280;60655;52.182;4.474;2022-09-13T11:23:40;101173.81;;;21.18;58.75
72612;BME280;60655;52.182;4.474;2022-09-13T11:33:23;101153.09;;;21.04;59.94
72612;BME280;60655;52.182;4.474;2022-09-13T11:35:35;101153.91;;;21.04;60.16
72612;BME280;60655;52.182;4.474;2022-09-13T11:38:04;101160.56;;;21.22;60.19
72612;BME280;60655;52.182;4.474;2022-09-13T11:40:27;101150.03;;;21.20;59.15
72612;BME280;60655;52.182;4.474;2022-09-13T11:49:09;101168.06;;;21.35;58.32
72612;BME280;60655;52.182;4.474;2022-09-13T11:54:13;101159.78;;;21.11;57.59
72612;BME280;60655;52.182;4.474;2022-09-13T11:56:28;101159.50;;;21.23;57.37
72612;BME280;60655;52.182;4.474;2022-09-13T11:58:35;101167.47;;;21.43;57.58
72612;BME280;60655;52.182;4.474;2022-09-13T12:00:45;101184.56;;;21.34;56.91
72612;BME280;60655;52.182;4.474;2022-09-13T12:05:21;101169.16;;;21.34;58.38
72612;BME280;60655;52.182;4.474;2022-09-13T12:07:28;101172.41;;;21.36;57.64
72612;BME280;60655;52.182;4.474;2022-09-13T12:09:35;101172.75;;;21.14;58.45
72612;BME280;60655;52.182;4.474;2022-09-13T12:11:42;101170.00;;;21.30;56.86
72612;BME280;60655;52.182;4.474;2022-09-13T12:13:47;101175.16;;;21.21;57.51
72612;BME280;60655;52.182;4.474;2022-09-13T12:15:52;101163.00;;;21.18;57.38
72612;BME280;60655;52.182;4.474;2022-09-13T12:18:03;101163.81;;;21.24;55.13
72612;BME280;60655;52.182;4.474;2022-09-13T12:20:26;101154.09;;;21.23;55.25
72612;BME280;60655;52.182;4.474;2022-09-13T12:22:32;101168.03;;;21.40;55.15
72612;BME280;60655;52.182;4.474;2022-09-13T12:24:44;101165.38;;;21.35;56.63
72612;BME280;60655;52.182;4.474;2022-09-13T12:27:06;101171.00;;;21.39;55.55
72612;BME280;60655;52.182;4.474;2022-09-13T12:31:25;101171.13;;;21.63;55.33